Impacts TAF Board
For situational awareness. Not to be used for flight planning purposes.
IDs:

KCXO - Conroe/Executive Arp, TX, US

Issued at 0520 UTC 13 Aug 2022
Updated at 0925 UTC 13 Aug 2022
Potential Impact None Slight Moderate High
Time0853Z 13/10Z 13/11Z 13/12Z 13/13Z 13/14Z 13/15Z 13/16Z 13/17Z 13/18Z 13/19Z 13/20Z 13/21Z 13/22Z>>
Type OBS PRVL PRVL PRVL PRVL PRVL PRVL PRVL PRVL PRVL PRVL PRVL PRVL PRVL
VIS 8 >6 >6 >6 >6 >6 >6 >6 >6 >6 >6 >6 >6 >6
CIG -- -- -- -- -- -- -- -- -- -- -- -- -- --
Cover CLR SKC SKC SKC SKC SKC SCT SCT SCT SCT SCT SCT SCT SCT
FltCat VFR VFR VFR VFR VFR VFR VFR VFR VFR VFR VFR VFR VFR VFR
WX -- -- -- -- -- -- -- -- -- -- -- -- VCSH VCSH
WDir VRB VRB VRB VRB VRB VRB 70 70 70 70 70 70 100 100
WSpd 0 0 0 0 0 0 9 9 9 9 9 9 10 10
WGst -- -- -- -- -- -- -- -- -- -- -- -- -- --
WSHgt -- -- -- -- -- -- -- -- -- -- -- -- -- --
WSDir -- -- -- -- -- -- -- -- -- -- -- -- -- --
WSSpd -- -- -- -- -- -- -- -- -- -- -- -- -- --
Raw TAF
KCXO 130520Z 1306/1406 00000KT P6SM SKC
  FM131500 07009KT P6SM FEW040 SCT250
  FM132100 10010KT P6SM VCSH FEW045 SCT250
  FM140000 13007KT P6SM SCT040 SCT250


Raw METAR
KCXO 130853Z AUTO 00000KT 8SM CLR 23/23 A2998 RMK AO2 SLP147 T02330233 50002
KCXO 130753Z AUTO 00000KT 10SM SCT049 24/23 A2998 RMK AO2 SLP148 T02390233
KCXO 130653Z AUTO 00000KT 10SM BKN049 25/24 A2998 RMK AO2 SLP146 T02500239

METAR Board
Radar Display
Forecast Discussion
For situational awareness. Not to be used for flight planning purposes.